sensor_id;sensor_type;location;lat;lon;timestamp;pressure;altitude;pressure_sealevel;temperature;humidity
12195;BME280;27023;42.680;23.132;2022-10-31T00:00:26;92630.03;;;13.07;77.80
12195;BME280;27023;42.680;23.132;2022-10-31T00:02:53;92630.84;;;13.11;77.99
12195;BME280;27023;42.680;23.132;2022-10-31T00:05:20;92627.91;;;13.32;74.98
12195;BME280;27023;42.680;23.132;2022-10-31T00:07:47;92626.66;;;13.26;76.28
12195;BME280;27023;42.680;23.132;2022-10-31T00:10:13;92628.34;;;12.99;77.41
12195;BME280;27023;42.680;23.132;2022-10-31T00:12:40;92624.81;;;12.76;80.61
12195;BME280;27023;42.680;23.132;2022-10-31T00:15:07;92636.81;;;12.89;81.86
12195;BME280;27023;42.680;23.132;2022-10-31T00:17:36;92630.41;;;12.55;81.43
12195;BME280;27023;42.680;23.132;2022-10-31T00:20:03;92639.94;;;12.75;82.94
12195;BME280;27023;42.680;23.132;2022-10-31T00:22:29;92634.66;;;12.75;82.59
12195;BME280;27023;42.680;23.132;2022-10-31T00:24:56;92641.63;;;12.83;80.34
12195;BME280;27023;42.680;23.132;2022-10-31T00:27:23;92633.84;;;13.10;80.11
12195;BME280;27023;42.680;23.132;2022-10-31T00:29:49;92637.13;;;12.52;84.03
12195;BME280;27023;42.680;23.132;2022-10-31T00:32:16;92629.28;;;12.71;81.76
12195;BME280;27023;42.680;23.132;2022-10-31T00:34:44;92620.16;;;12.69;81.52
12195;BME280;27023;42.680;23.132;2022-10-31T00:37:11;92630.56;;;12.62;82.75
12195;BME280;27023;42.680;23.132;2022-10-31T00:39:37;92632.78;;;12.60;82.84
12195;BME280;27023;42.680;23.132;2022-10-31T00:42:04;92621.22;;;12.84;82.79
12195;BME280;27023;42.680;23.132;2022-10-31T00:44:31;92622.44;;;12.70;82.88
12195;BME280;27023;42.680;23.132;2022-10-31T00:46:58;92630.69;;;12.85;82.99
12195;BME280;27023;42.680;23.132;2022-10-31T00:49:24;92620.34;;;12.95;79.51
12195;BME280;27023;42.680;23.132;2022-10-31T00:51:52;92621.13;;;13.34;79.20
12195;BME280;27023;42.680;23.132;2022-10-31T00:54:19;92616.84;;;12.91;83.07
12195;BME280;27023;42.680;23.132;2022-10-31T00:56:46;92621.00;;;12.73;82.83
12195;BME280;27023;42.680;23.132;2022-10-31T00:59:12;92625.94;;;12.59;84.23
12195;BME280;27023;42.680;23.132;2022-10-31T01:01:39;92629.22;;;12.36;88.94
12195;BME280;27023;42.680;23.132;2022-10-31T01:04:06;92624.53;;;12.30;89.20
12195;BME280;27023;42.680;23.132;2022-10-31T01:06:32;92626.31;;;12.41;87.96
12195;BME280;27023;42.680;23.132;2022-10-31T01:09:00;92628.22;;;12.25;91.51
12195;BME280;27023;42.680;23.132;2022-10-31T01:11:27;92626.66;;;12.40;87.49
12195;BME280;27023;42.680;23.132;2022-10-31T01:13:54;92628.13;;;12.37;89.31
12195;BME280;27023;42.680;23.132;2022-10-31T01:16:22;92628.88;;;12.38;89.63
12195;BME280;27023;42.680;23.132;2022-10-31T01:18:49;92634.09;;;12.34;91.08
12195;BME280;27023;42.680;23.132;2022-10-31T01:21:19;92635.81;;;12.27;91.47
12195;BME280;27023;42.680;23.132;2022-10-31T01:23:46;92626.69;;;12.24;91.19
12195;BME280;27023;42.680;23.132;2022-10-31T01:26:16;92632.06;;;12.12;94.07
12195;BME280;27023;42.680;23.132;2022-10-31T01:28:45;92633.50;;;12.25;91.78
12195;BME280;27023;42.680;23.132;2022-10-31T01:31:13;92635.25;;;12.53;90.65
12195;BME280;27023;42.680;23.132;2022-10-31T01:33:40;92627.47;;;12.76;89.89
12195;BME280;27023;42.680;23.132;2022-10-31T01:36:15;92621.69;;;12.70;90.22
12195;BME280;27023;42.680;23.132;2022-10-31T01:38:42;92628.88;;;12.89;90.52
12195;BME280;27023;42.680;23.132;2022-10-31T01:41:10;92629.31;;;13.10;89.72
12195;BME280;27023;42.680;23.132;2022-10-31T01:44:00;92633.72;;;13.02;87.84
12195;BME280;27023;42.680;23.132;2022-10-31T01:46:29;92626.38;;;13.31;85.00
12195;BME280;27023;42.680;23.132;2022-10-31T01:49:00;92619.56;;;13.49;81.83
12195;BME280;27023;42.680;23.132;2022-10-31T01:51:31;92618.94;;;13.79;79.47
12195;BME280;27023;42.680;23.132;2022-10-31T01:54:01;92625.06;;;13.83;79.79
12195;BME280;27023;42.680;23.132;2022-10-31T01:56:31;92625.72;;;13.99;78.63
12195;BME280;27023;42.680;23.132;2022-10-31T01:59:01;92620.25;;;13.88;82.79
12195;BME280;27023;42.680;23.132;2022-10-31T02:01:31;92611.25;;;13.51;83.83
12195;BME280;27023;42.680;23.132;2022-10-31T02:03:57;92616.75;;;13.61;85.80
12195;BME280;27023;42.680;23.132;2022-10-31T02:06:31;92611.25;;;13.31;86.54
12195;BME280;27023;42.680;23.132;2022-10-31T02:09:00;92609.53;;;13.39;86.01
12195;BME280;27023;42.680;23.132;2022-10-31T02:11:28;92600.97;;;13.68;80.62
12195;BME280;27023;42.680;23.132;2022-10-31T02:13:56;92607.28;;;13.60;84.72
12195;BME280;27023;42.680;23.132;2022-10-31T02:16:25;92613.81;;;13.66;83.81
12195;BME280;27023;42.680;23.132;2022-10-31T02:18:52;92616.03;;;13.64;86.15
12195;BME280;27023;42.680;23.132;2022-10-31T02:21:23;92618.19;;;13.78;82.37
12195;BME280;27023;42.680;23.132;2022-10-31T02:24:17;92626.97;;;14.05;79.65
12195;BME280;27023;42.680;23.132;2022-10-31T02:26:57;92632.69;;;14.07;82.56
12195;BME280;27023;42.680;23.132;2022-10-31T02:30:02;92629.44;;;13.94;84.60
12195;BME280;27023;42.680;23.132;2022-10-31T02:32:38;92633.69;;;13.99;80.68
12195;BME280;27023;42.680;23.132;2022-10-31T02:35:13;92630.69;;;14.23;80.21
12195;BME280;27023;42.680;23.132;2022-10-31T02:37:48;92638.28;;;14.02;87.19
12195;BME280;27023;42.680;23.132;2022-10-31T02:40:22;92636.59;;;14.13;79.16
12195;BME280;27023;42.680;23.132;2022-10-31T02:42:57;92638.78;;;14.30;77.60
12195;BME280;27023;42.680;23.132;2022-10-31T02:45:30;92638.41;;;14.32;82.90
12195;BME280;27023;42.680;23.132;2022-10-31T02:48:03;92643.34;;;14.11;83.01
12195;BME280;27023;42.680;23.132;2022-10-31T02:50:32;92643.34;;;13.88;81.18
12195;BME280;27023;42.680;23.132;2022-10-31T02:53:01;92646.56;;;13.78;83.18
12195;BME280;27023;42.680;23.132;2022-10-31T02:55:47;92643.50;;;13.76;84.35
12195;BME280;27023;42.680;23.132;2022-10-31T02:58:20;92645.78;;;13.77;86.69
12195;BME280;27023;42.680;23.132;2022-10-31T03:01:03;92654.50;;;13.78;88.15
12195;BME280;27023;42.680;23.132;2022-10-31T03:03:41;92656.16;;;13.86;88.99
12195;BME280;27023;42.680;23.132;2022-10-31T03:06:14;92655.41;;;13.85;90.04
12195;BME280;27023;42.680;23.132;2022-10-31T03:08:50;92654.19;;;13.41;88.04
12195;BME280;27023;42.680;23.132;2022-10-31T03:11:23;92661.28;;;13.36;90.97
12195;BME280;27023;42.680;23.132;2022-10-31T03:14:00;92662.69;;;13.15;92.81
12195;BME280;27023;42.680;23.132;2022-10-31T03:16:37;92655.50;;;12.96;90.97
12195;BME280;27023;42.680;23.132;2022-10-31T03:19:09;92653.13;;;12.91;93.99
12195;BME280;27023;42.680;23.132;2022-10-31T03:21:41;92658.78;;;12.73;93.78
12195;BME280;27023;42.680;23.132;2022-10-31T03:24:10;92664.09;;;12.73;96.57
12195;BME280;27023;42.680;23.132;2022-10-31T03:26:40;92671.16;;;12.54;96.01
12195;BME280;27023;42.680;23.132;2022-10-31T03:29:12;92657.44;;;12.48;99.25
12195;BME280;27023;42.680;23.132;2022-10-31T03:31:45;92665.72;;;12.31;98.80
12195;BME280;27023;42.680;23.132;2022-10-31T03:34:15;92667.94;;;12.13;97.69
12195;BME280;27023;42.680;23.132;2022-10-31T03:36:45;92667.69;;;12.02;98.53
12195;BME280;27023;42.680;23.132;2022-10-31T03:39:17;92683.44;;;11.99;100.00
12195;BME280;27023;42.680;23.132;2022-10-31T03:41:49;92676.31;;;11.87;100.00
12195;BME280;27023;42.680;23.132;2022-10-31T03:44:20;92676.56;;;11.82;100.00
12195;BME280;27023;42.680;23.132;2022-10-31T03:46:48;92677.34;;;11.83;100.00
12195;BME280;27023;42.680;23.132;2022-10-31T03:49:17;92670.44;;;11.78;100.00
12195;BME280;27023;42.680;23.132;2022-10-31T03:51:49;92682.28;;;11.84;100.00
12195;BME280;27023;42.680;23.132;2022-10-31T03:54:24;92681.00;;;11.78;100.00
12195;BME280;27023;42.680;23.132;2022-10-31T03:56:55;92683.06;;;11.85;100.00
12195;BME280;27023;42.680;23.132;2022-10-31T03:59:26;92689.16;;;12.01;100.00
12195;BME280;27023;42.680;23.132;2022-10-31T04:01:57;92684.03;;;11.92;100.00
12195;BME280;27023;42.680;23.132;2022-10-31T04:04:26;92693.44;;;11.77;100.00
12195;BME280;27023;42.680;23.132;2022-10-31T04:06:55;92687.34;;;11.77;100.00
12195;BME280;27023;42.680;23.132;2022-10-31T04:09:23;92697.16;;;11.76;100.00
12195;BME280;27023;42.680;23.132;2022-10-31T04:11:53;92692.09;;;11.71;100.00
12195;BME280;27023;42.680;23.132;2022-10-31T04:14:22;92694.28;;;11.82;100.00
12195;BME280;27023;42.680;23.132;2022-10-31T04:16:50;92697.28;;;11.80;100.00
12195;BME280;27023;42.680;23.132;2022-10-31T04:19:17;92694.03;;;11.87;100.00
12195;BME280;27023;42.680;23.132;2022-10-31T04:21:46;92698.69;;;11.90;100.00
12195;BME280;27023;42.680;23.132;2022-10-31T04:24:12;92691.91;;;12.20;99.93
12195;BME280;27023;42.680;23.132;2022-10-31T04:26:39;92696.94;;;12.25;100.00
12195;BME280;27023;42.680;23.132;2022-10-31T04:29:06;92702.81;;;12.34;100.00
12195;BME280;27023;42.680;23.132;2022-10-31T04:31:32;92700.09;;;12.31;100.00
12195;BME280;27023;42.680;23.132;2022-10-31T04:33:59;92692.41;;;12.26;100.00
12195;BME280;27023;42.680;23.132;2022-10-31T04:36:25;92695.13;;;12.29;100.00
12195;BME280;27023;42.680;23.132;2022-10-31T04:38:54;92697.53;;;12.34;100.00
12195;BME280;27023;42.680;23.132;2022-10-31T04:41:20;92692.91;;;12.47;100.00
12195;BME280;27023;42.680;23.132;2022-10-31T04:43:47;92696.25;;;12.44;100.00
12195;BME280;27023;42.680;23.132;2022-10-31T04:46:14;92694.28;;;12.41;100.00
12195;BME280;27023;42.680;23.132;2022-10-31T04:48:40;92697.28;;;12.39;100.00
12195;BME280;27023;42.680;23.132;2022-10-31T04:51:07;92691.97;;;12.39;100.00
12195;BME280;27023;42.680;23.132;2022-10-31T04:53:34;92702.63;;;12.43;100.00
12195;BME280;27023;42.680;23.132;2022-10-31T04:56:02;92707.41;;;12.37;100.00
12195;BME280;27023;42.680;23.132;2022-10-31T04:58:28;92707.66;;;12.32;100.00
12195;BME280;27023;42.680;23.132;2022-10-31T05:00:56;92711.25;;;12.24;100.00
12195;BME280;27023;42.680;23.132;2022-10-31T05:03:23;92707.75;;;12.20;100.00
12195;BME280;27023;42.680;23.132;2022-10-31T05:05:49;92709.88;;;12.30;100.00
12195;BME280;27023;42.680;23.132;2022-10-31T05:08:16;92707.81;;;12.08;100.00
12195;BME280;27023;42.680;23.132;2022-10-31T05:10:43;92713.28;;;11.99;100.00
12195;BME280;27023;42.680;23.132;2022-10-31T05:13:11;92719.81;;;11.90;100.00
12195;BME280;27023;42.680;23.132;2022-10-31T05:15:40;92723.66;;;11.92;100.00
12195;BME280;27023;42.680;23.132;2022-10-31T05:18:07;92722.00;;;11.88;100.00
12195;BME280;27023;42.680;23.132;2022-10-31T05:20:34;92728.19;;;11.80;100.00
12195;BME280;27023;42.680;23.132;2022-10-31T05:23:01;92727.97;;;11.72;100.00
12195;BME280;27023;42.680;23.132;2022-10-31T05:25:28;92726.34;;;11.68;100.00
12195;BME280;27023;42.680;23.132;2022-10-31T05:27:56;92728.56;;;11.66;100.00
12195;BME280;27023;42.680;23.132;2022-10-31T05:30:26;92727.16;;;11.56;100.00
12195;BME280;27023;42.680;23.132;2022-10-31T05:32:53;92734.59;;;11.66;100.00
12195;BME280;27023;42.680;23.132;2022-10-31T05:35:21;92725.38;;;11.60;100.00
12195;BME280;27023;42.680;23.132;2022-10-31T05:37:49;92736.50;;;11.54;100.00
12195;BME280;27023;42.680;23.132;2022-10-31T05:40:17;92729.69;;;11.53;100.00
12195;BME280;27023;42.680;23.132;2022-10-31T05:42:44;92739.00;;;11.62;100.00
12195;BME280;27023;42.680;23.132;2022-10-31T05:45:13;92736.72;;;11.61;100.00
12195;BME280;27023;42.680;23.132;2022-10-31T05:47:42;92736.81;;;11.64;100.00
12195;BME280;27023;42.680;23.132;2022-10-31T05:50:09;92739.53;;;11.68;100.00
12195;BME280;27023;42.680;23.132;2022-10-31T05:52:36;92735.22;;;11.75;100.00
12195;BME280;27023;42.680;23.132;2022-10-31T05:55:03;92741.94;;;11.85;100.00
12195;BME280;27023;42.680;23.132;2022-10-31T05:57:31;92738.19;;;11.86;100.00
12195;BME280;27023;42.680;23.132;2022-10-31T05:59:59;92740.72;;;11.83;100.00
12195;BME280;27023;42.680;23.132;2022-10-31T06:02:25;92742.03;;;11.89;100.00
12195;BME280;27023;42.680;23.132;2022-10-31T06:04:58;92742.59;;;12.10;100.00
12195;BME280;27023;42.680;23.132;2022-10-31T06:07:24;92751.06;;;12.16;100.00
12195;BME280;27023;42.680;23.132;2022-10-31T06:09:51;92757.28;;;12.23;100.00
12195;BME280;27023;42.680;23.132;2022-10-31T06:12:18;92754.22;;;12.21;100.00
12195;BME280;27023;42.680;23.132;2022-10-31T06:14:44;92758.84;;;12.56;100.00
12195;BME280;27023;42.680;23.132;2022-10-31T06:17:11;92752.72;;;12.83;100.00
12195;BME280;27023;42.680;23.132;2022-10-31T06:19:38;92761.66;;;13.10;100.00
12195;BME280;27023;42.680;23.132;2022-10-31T06:22:06;92767.94;;;13.37;100.00
12195;BME280;27023;42.680;23.132;2022-10-31T06:24:33;92761.50;;;13.03;100.00
12195;BME280;27023;42.680;23.132;2022-10-31T06:26:59;92773.53;;;13.00;100.00
12195;BME280;27023;42.680;23.132;2022-10-31T06:29:26;92770.19;;;13.03;100.00
12195;BME280;27023;42.680;23.132;2022-10-31T06:31:53;92774.91;;;12.94;100.00
12195;BME280;27023;42.680;23.132;2022-10-31T06:34:20;92772.59;;;12.93;100.00
12195;BME280;27023;42.680;23.132;2022-10-31T06:36:46;92777.13;;;12.92;100.00
12195;BME280;27023;42.680;23.132;2022-10-31T06:39:15;92782.31;;;13.04;100.00
12195;BME280;27023;42.680;23.132;2022-10-31T06:41:41;92775.75;;;12.98;100.00
12195;BME280;27023;42.680;23.132;2022-10-31T06:44:08;92779.59;;;13.01;100.00
12195;BME280;27023;42.680;23.132;2022-10-31T06:46:35;92777.19;;;13.12;100.00
12195;BME280;27023;42.680;23.132;2022-10-31T06:49:01;92778.44;;;13.49;97.62
12195;BME280;27023;42.680;23.132;2022-10-31T06:51:28;92784.19;;;13.35;99.40
12195;BME280;27023;42.680;23.132;2022-10-31T06:53:55;92789.38;;;13.32;98.34
12195;BME280;27023;42.680;23.132;2022-10-31T06:56:23;92791.97;;;13.44;98.57
12195;BME280;27023;42.680;23.132;2022-10-31T06:58:49;92792.19;;;13.55;97.60
12195;BME280;27023;42.680;23.132;2022-10-31T07:01:16;92784.75;;;13.80;97.09
12195;BME280;27023;42.680;23.132;2022-10-31T07:03:43;92789.75;;;13.85;96.05
12195;BME280;27023;42.680;23.132;2022-10-31T07:06:10;92794.94;;;13.97;95.35
12195;BME280;27023;42.680;23.132;2022-10-31T07:08:36;92787.06;;;14.00;94.23
12195;BME280;27023;42.680;23.132;2022-10-31T07:11:03;92794.88;;;14.13;93.27
12195;BME280;27023;42.680;23.132;2022-10-31T07:13:32;92787.19;;;14.08;96.00
12195;BME280;27023;42.680;23.132;2022-10-31T07:16:01;92797.19;;;14.14;94.33
12195;BME280;27023;42.680;23.132;2022-10-31T07:18:28;92796.03;;;13.96;93.94
12195;BME280;27023;42.680;23.132;2022-10-31T07:20:55;92797.72;;;14.04;94.55
12195;BME280;27023;42.680;23.132;2022-10-31T07:23:22;92798.31;;;14.13;93.14
12195;BME280;27023;42.680;23.132;2022-10-31T07:25:54;92784.59;;;14.50;91.30
12195;BME280;27023;42.680;23.132;2022-10-31T07:28:21;92780.78;;;14.70;89.73
12195;BME280;27023;42.680;23.132;2022-10-31T07:30:50;92786.31;;;14.84;89.07
12195;BME280;27023;42.680;23.132;2022-10-31T07:33:17;92784.63;;;14.96;88.34
12195;BME280;27023;42.680;23.132;2022-10-31T07:35:44;92783.72;;;15.11;87.48
12195;BME280;27023;42.680;23.132;2022-10-31T07:38:15;92782.34;;;14.94;88.65
12195;BME280;27023;42.680;23.132;2022-10-31T07:40:42;92778.41;;;15.11;87.02
12195;BME280;27023;42.680;23.132;2022-10-31T07:43:10;92779.84;;;15.31;85.31
12195;BME280;27023;42.680;23.132;2022-10-31T07:45:37;92774.78;;;15.22;85.63
12195;BME280;27023;42.680;23.132;2022-10-31T07:48:06;92775.56;;;15.23;85.12
12195;BME280;27023;42.680;23.132;2022-10-31T07:50:33;92778.22;;;15.23;83.91
12195;BME280;27023;42.680;23.132;2022-10-31T07:53:01;92775.16;;;15.21;83.00
12195;BME280;27023;42.680;23.132;2022-10-31T07:55:29;92771.69;;;15.43;82.78
12195;BME280;27023;42.680;23.132;2022-10-31T07:58:05;92779.09;;;15.31;83.16
12195;BME280;27023;42.680;23.132;2022-10-31T08:00:36;92771.78;;;15.50;82.62
12195;BME280;27023;42.680;23.132;2022-10-31T08:03:06;92778.06;;;15.39;81.95
12195;BME280;27023;42.680;23.132;2022-10-31T08:05:34;92776.09;;;15.58;81.59
12195;BME280;27023;42.680;23.132;2022-10-31T08:08:01;92767.25;;;15.77;81.15
12195;BME280;27023;42.680;23.132;2022-10-31T08:10:29;92769.78;;;16.00;79.46
12195;BME280;27023;42.680;23.132;2022-10-31T08:12:57;92766.81;;;16.05;79.05
12195;BME280;27023;42.680;23.132;2022-10-31T08:15:25;92779.16;;;16.20;77.98
12195;BME280;27023;42.680;23.132;2022-10-31T08:17:52;92784.53;;;16.28;77.72
12195;BME280;27023;42.680;23.132;2022-10-31T08:20:21;92783.38;;;16.25;78.07
12195;BME280;27023;42.680;23.132;2022-10-31T08:23:04;92783.00;;;16.27;76.93
12195;BME280;27023;42.680;23.132;2022-10-31T08:25:46;92779.72;;;16.37;75.79
12195;BME280;27023;42.680;23.132;2022-10-31T08:28:14;92784.34;;;16.43;75.33
12195;BME280;27023;42.680;23.132;2022-10-31T08:30:41;92784.81;;;16.52;75.33
12195;BME280;27023;42.680;23.132;2022-10-31T08:33:10;92787.78;;;16.44;75.67
12195;BME280;27023;42.680;23.132;2022-10-31T08:35:39;92779.53;;;16.56;74.92
12195;BME280;27023;42.680;23.132;2022-10-31T08:38:06;92780.06;;;16.69;74.71
12195;BME280;27023;42.680;23.132;2022-10-31T08:40:37;92787.41;;;16.82;74.19
12195;BME280;27023;42.680;23.132;2022-10-31T08:43:05;92787.47;;;16.90;74.44
12195;BME280;27023;42.680;23.132;2022-10-31T08:45:33;92787.13;;;16.95;74.54
12195;BME280;27023;42.680;23.132;2022-10-31T08:48:01;92766.53;;;16.88;73.57
12195;BME280;27023;42.680;23.132;2022-10-31T08:50:33;92785.03;;;17.11;73.35
12195;BME280;27023;42.680;23.132;2022-10-31T08:53:02;92784.78;;;17.30;73.19
12195;BME280;27023;42.680;23.132;2022-10-31T08:55:36;92783.81;;;17.56;71.52
12195;BME280;27023;42.680;23.132;2022-10-31T09:00:59;92782.81;;;17.78;69.72
12195;BME280;27023;42.680;23.132;2022-10-31T09:03:50;92789.34;;;17.85;68.75
12195;BME280;27023;42.680;23.132;2022-10-31T09:06:17;92792.72;;;17.78;69.18
12195;BME280;27023;42.680;23.132;2022-10-31T09:08:53;92788.50;;;17.73;69.76
12195;BME280;27023;42.680;23.132;2022-10-31T09:11:23;92793.06;;;17.73;68.39
12195;BME280;27023;42.680;23.132;2022-10-31T09:14:02;92794.25;;;17.79;68.63
12195;BME280;27023;42.680;23.132;2022-10-31T09:16:45;92785.94;;;17.91;68.44
12195;BME280;27023;42.680;23.132;2022-10-31T09:19:11;92784.47;;;18.01;68.49
12195;BME280;27023;42.680;23.132;2022-10-31T09:21:39;92786.41;;;18.11;68.02
12195;BME280;27023;42.680;23.132;2022-10-31T09:24:10;92795.16;;;18.04;66.93
12195;BME280;27023;42.680;23.132;2022-10-31T09:26:40;92792.06;;;17.95;68.27
12195;BME280;27023;42.680;23.132;2022-10-31T09:29:07;92786.63;;;17.77;68.76
12195;BME280;27023;42.680;23.132;2022-10-31T09:31:37;92789.38;;;17.37;70.49
12195;BME280;27023;42.680;23.132;2022-10-31T09:37:23;92792.44;;;17.94;67.51
12195;BME280;27023;42.680;23.132;2022-10-31T09:39:54;92790.50;;;17.87;66.87
12195;BME280;27023;42.680;23.132;2022-10-31T09:43:07;92783.69;;;18.00;64.68
12195;BME280;27023;42.680;23.132;2022-10-31T09:45:59;92787.09;;;17.90;65.71
12195;BME280;27023;42.680;23.132;2022-10-31T09:48:50;92787.03;;;17.83;66.29
12195;BME280;27023;42.680;23.132;2022-10-31T09:51:24;92770.88;;;18.38;63.93
12195;BME280;27023;42.680;23.132;2022-10-31T09:53:59;92780.16;;;18.65;63.33
12195;BME280;27023;42.680;23.132;2022-10-31T09:56:31;92780.53;;;18.67;61.98
12195;BME280;27023;42.680;23.132;2022-10-31T09:59:05;92778.16;;;18.55;62.47
12195;BME280;27023;42.680;23.132;2022-10-31T10:01:49;92776.16;;;18.17;65.28
12195;BME280;27023;42.680;23.132;2022-10-31T10:04:32;92777.78;;;18.50;64.33
12195;BME280;27023;42.680;23.132;2022-10-31T10:07:05;92780.81;;;18.48;62.79
12195;BME280;27023;42.680;23.132;2022-10-31T10:09:35;92773.28;;;18.64;62.46
12195;BME280;27023;42.680;23.132;2022-10-31T10:12:12;92774.44;;;18.78;61.79
12195;BME280;27023;42.680;23.132;2022-10-31T10:14:53;92772.16;;;18.90;60.87
12195;BME280;27023;42.680;23.132;2022-10-31T10:17:29;92771.41;;;18.97;61.89
12195;BME280;27023;42.680;23.132;2022-10-31T10:20:21;92768.34;;;18.95;62.18
12195;BME280;27023;42.680;23.132;2022-10-31T10:22:58;92767.59;;;18.98;60.22
12195;BME280;27023;42.680;23.132;2022-10-31T10:25:33;92770.25;;;19.05;59.90
12195;BME280;27023;42.680;23.132;2022-10-31T10:28:14;92760.34;;;19.09;60.08
12195;BME280;27023;42.680;23.132;2022-10-31T10:30:46;92759.56;;;19.01;59.73
12195;BME280;27023;42.680;23.132;2022-10-31T10:33:19;92757.28;;;19.14;58.58
12195;BME280;27023;42.680;23.132;2022-10-31T10:35:52;92756.16;;;19.08;59.76
12195;BME280;27023;42.680;23.132;2022-10-31T10:38:26;92753.47;;;19.29;59.56
12195;BME280;27023;42.680;23.132;2022-10-31T10:40:54;92746.59;;;19.28;59.96
12195;BME280;27023;42.680;23.132;2022-10-31T10:43:24;92740.88;;;19.41;59.32
12195;BME280;27023;42.680;23.132;2022-10-31T10:46:14;92737.38;;;19.72;57.86
12195;BME280;27023;42.680;23.132;2022-10-31T10:49:06;92742.31;;;19.88;56.29
12195;BME280;27023;42.680;23.132;2022-10-31T10:51:38;92730.41;;;19.99;55.97
12195;BME280;27023;42.680;23.132;2022-10-31T10:54:20;92728.47;;;20.04;55.59
12195;BME280;27023;42.680;23.132;2022-10-31T10:56:58;92730.41;;;19.99;55.24
12195;BME280;27023;42.680;23.132;2022-10-31T10:59:28;92728.88;;;19.98;56.35
12195;BME280;27023;42.680;23.132;2022-10-31T11:01:56;92731.13;;;20.18;55.48
12195;BME280;27023;42.680;23.132;2022-10-31T11:04:33;92734.22;;;20.13;55.24
12195;BME280;27023;42.680;23.132;2022-10-31T11:07:03;92729.63;;;20.10;54.21
12195;BME280;27023;42.680;23.132;2022-10-31T11:09:31;92725.81;;;20.04;53.58
12195;BME280;27023;42.680;23.132;2022-10-31T11:11:58;92720.09;;;19.98;53.97
12195;BME280;27023;42.680;23.132;2022-10-31T11:14:28;92721.22;;;20.08;54.12
12195;BME280;27023;42.680;23.132;2022-10-31T11:17:07;92713.53;;;20.17;53.77
12195;BME280;27023;42.680;23.132;2022-10-31T11:19:36;92712.41;;;20.14;53.07
12195;BME280;27023;42.680;23.132;2022-10-31T11:22:07;92712.81;;;20.06;51.95
12195;BME280;27023;42.680;23.132;2022-10-31T11:24:39;92709.75;;;20.04;52.66
12195;BME280;27023;42.680;23.132;2022-10-31T11:27:15;92707.50;;;19.95;53.67
12195;BME280;27023;42.680;23.132;2022-10-31T11:29:43;92707.47;;;20.06;52.69
12195;BME280;27023;42.680;23.132;2022-10-31T11:32:20;92689.13;;;20.00;52.72
12195;BME280;27023;42.680;23.132;2022-10-31T11:34:50;92702.72;;;20.38;52.72
12195;BME280;27023;42.680;23.132;2022-10-31T11:37:20;92699.53;;;20.61;52.18
12195;BME280;27023;42.680;23.132;2022-10-31T11:39:51;92695.19;;;20.19;52.74
12195;BME280;27023;42.680;23.132;2022-10-31T11:42:21;92705.88;;;20.22;52.42
12195;BME280;27023;42.680;23.132;2022-10-31T11:44:51;92704.69;;;20.27;51.12
12195;BME280;27023;42.680;23.132;2022-10-31T11:47:25;92694.00;;;20.27;51.20
12195;BME280;27023;42.680;23.132;2022-10-31T11:49:53;92697.00;;;20.33;51.93
12195;BME280;27023;42.680;23.132;2022-10-31T11:52:23;92690.88;;;20.43;51.76
12195;BME280;27023;42.680;23.132;2022-10-31T11:54:54;92688.88;;;20.54;50.54
12195;BME280;27023;42.680;23.132;2022-10-31T11:57:23;92694.59;;;20.59;50.45
12195;BME280;27023;42.680;23.132;2022-10-31T11:59:53;92684.63;;;20.60;50.90
12195;BME280;27023;42.680;23.132;2022-10-31T12:02:21;92686.94;;;20.58;50.24
12195;BME280;27023;42.680;23.132;2022-10-31T12:04:52;92677.34;;;20.60;50.55
12195;BME280;27023;42.680;23.132;2022-10-31T12:07:23;92678.88;;;20.61;50.35
12195;BME280;27023;42.680;23.132;2022-10-31T12:09:50;92672.75;;;20.65;50.69
12195;BME280;27023;42.680;23.132;2022-10-31T12:12:34;92678.03;;;20.72;50.51
12195;BME280;27023;42.680;23.132;2022-10-31T12:15:31;92673.47;;;20.69;49.97
12195;BME280;27023;42.680;23.132;2022-10-31T12:18:25;92671.94;;;20.68;49.52
12195;BME280;27023;42.680;23.132;2022-10-31T12:21:04;92675.78;;;20.67;49.68
12195;BME280;27023;42.680;23.132;2022-10-31T12:23:41;92672.75;;;20.65;49.51
12195;BME280;27023;42.680;23.132;2022-10-31T12:26:16;92668.97;;;20.58;49.73
12195;BME280;27023;42.680;23.132;2022-10-31T12:29:00;92668.97;;;20.58;50.25
12195;BME280;27023;42.680;23.132;2022-10-31T12:31:40;92668.97;;;20.58;50.17
12195;BME280;27023;42.680;23.132;2022-10-31T12:34:32;92672.38;;;20.62;49.61
12195;BME280;27023;42.680;23.132;2022-10-31T12:37:10;92669.78;;;20.48;51.03
12195;BME280;27023;42.680;23.132;2022-10-31T12:39:46;92673.22;;;20.52;50.73
12195;BME280;27023;42.680;23.132;2022-10-31T12:42:28;92671.22;;;20.63;49.65
12195;BME280;27023;42.680;23.132;2022-10-31T12:45:18;92667.75;;;20.67;49.53
12195;BME280;27023;42.680;23.132;2022-10-31T12:50:54;92669.44;;;20.46;52.36
12195;BME280;27023;42.680;23.132;2022-10-31T12:53:32;92676.53;;;20.67;50.53
12195;BME280;27023;42.680;23.132;2022-10-31T12:56:19;92670.00;;;20.72;50.18
12195;BME280;27023;42.680;23.132;2022-10-31T12:58:54;92673.56;;;20.58;52.58
12195;BME280;27023;42.680;23.132;2022-10-31T13:01:26;92665.44;;;20.69;50.33
12195;BME280;27023;42.680;23.132;2022-10-31T13:03:58;92668.81;;;20.76;49.95
12195;BME280;27023;42.680;23.132;2022-10-31T13:06:30;92673.41;;;20.76;49.73
12195;BME280;27023;42.680;23.132;2022-10-31T13:09:00;92668.44;;;20.78;49.80
12195;BME280;27023;42.680;23.132;2022-10-31T13:11:31;92673.38;;;20.79;48.94
12195;BME280;27023;42.680;23.132;2022-10-31T13:14:04;92668.03;;;20.83;49.57
12195;BME280;27023;42.680;23.132;2022-10-31T13:16:35;92666.03;;;20.35;54.66